createdAt,value
2023-04-01T00:01:00.409Z,78.9670
2023-04-01T00:02:02.355Z,79.0470
2023-04-01T00:03:04.411Z,79.2777
2023-04-01T00:04:06.444Z,79.2515
2023-04-01T00:05:08.429Z,79.2641
2023-04-01T00:06:10.557Z,79.3178
2023-04-01T00:07:12.523Z,79.3893
2023-04-01T00:08:14.459Z,79.2537
2023-04-01T00:09:16.663Z,79.3162
2023-04-01T00:10:18.732Z,79.2726
2023-04-01T00:11:20.848Z,78.4890
2023-04-01T00:12:22.774Z,78.9555
2023-04-01T00:13:24.692Z,79.1434
2023-04-01T00:14:26.629Z,78.9286
2023-04-01T00:15:28.566Z,79.0573
2023-04-01T00:16:30.536Z,79.2607
2023-04-01T00:17:32.488Z,79.2858
2023-04-01T00:18:34.446Z,79.2748
2023-04-01T00:19:36.370Z,79.4803
2023-04-01T00:20:38.310Z,79.4293
2023-04-01T00:21:40.247Z,79.3379
2023-04-01T00:22:42.194Z,79.2206
2023-04-01T00:23:44.136Z,79.2531
2023-04-01T00:24:46.333Z,79.4106
2023-04-01T00:25:48.262Z,79.3364
2023-04-01T00:26:50.218Z,78.9681
2023-04-01T00:27:52.171Z,79.2846
2023-04-01T00:28:55.012Z,79.2567
2023-04-01T00:29:56.956Z,79.1619
2023-04-01T00:30:58.896Z,78.9089
2023-04-01T00:32:01.098Z,79.0289
2023-04-01T00:33:03.219Z,79.2049
2023-04-01T00:34:05.129Z,78.9466
2023-04-01T00:35:07.056Z,78.8110
2023-04-01T00:36:09.037Z,78.5607
2023-04-01T00:37:10.963Z,78.5890
2023-04-01T00:38:12.886Z,78.5256
2023-04-01T00:39:14.928Z,78.1387
2023-04-01T00:40:16.840Z,78.1862
2023-04-01T00:41:18.816Z,78.2628
2023-04-01T00:42:20.794Z,78.5070
2023-04-01T00:43:22.749Z,78.6681
2023-04-01T00:44:24.726Z,78.7711
2023-04-01T00:45:26.677Z,78.1872
2023-04-01T00:46:28.670Z,77.7721
2023-04-01T00:47:30.720Z,77.8698
2023-04-01T00:48:32.658Z,78.1643
2023-04-01T00:49:34.612Z,78.5066
2023-04-01T00:50:36.588Z,78.3141
2023-04-01T00:51:38.569Z,78.0355
2023-04-01T00:52:40.564Z,77.9359
2023-04-01T00:53:42.530Z,77.9735
2023-04-01T00:54:44.490Z,78.0230
2023-04-01T00:55:46.429Z,78.2784
2023-04-01T00:56:48.460Z,78.2001
2023-04-01T00:57:50.433Z,78.2297
2023-04-01T00:58:52.390Z,78.1633
2023-04-01T00:59:54.398Z,78.3721
2023-04-01T01:00:56.420Z,78.5889
2023-04-01T01:01:58.395Z,78.5716
2023-04-01T01:03:00.404Z,78.4967
2023-04-01T01:04:02.361Z,78.4851
2023-04-01T01:05:04.297Z,78.6879
2023-04-01T01:06:06.290Z,78.9851
2023-04-01T01:07:08.234Z,78.9855
2023-04-01T01:08:10.204Z,78.9286
2023-04-01T01:09:12.251Z,78.9530
2023-04-01T01:10:14.207Z,78.8385
2023-04-01T01:11:16.339Z,78.9413
2023-04-01T01:12:18.789Z,79.1268
2023-04-01T01:13:20.721Z,79.1261
2023-04-01T01:14:22.657Z,79.3175
2023-04-01T01:15:24.601Z,79.5150
2023-04-01T01:16:26.652Z,79.6764
2023-04-01T01:17:28.590Z,79.7628
2023-04-01T01:18:30.567Z,79.6932
2023-04-01T01:19:32.548Z,79.6763
2023-04-01T01:20:34.488Z,79.7626
2023-04-01T01:21:36.465Z,79.9398
2023-04-01T01:22:38.417Z,80.1806
2023-04-01T01:23:40.409Z,80.3971
2023-04-01T01:24:42.330Z,80.5144
2023-04-01T01:25:44.304Z,80.5463
2023-04-01T01:26:46.235Z,80.7151
2023-04-01T01:27:48.190Z,80.9441
2023-04-01T01:28:50.148Z,80.5652
2023-04-01T01:29:52.080Z,80.5844
2023-04-01T01:30:54.079Z,81.0624
2023-04-01T01:31:56.046Z,81.2562
2023-04-01T01:32:57.965Z,81.0354
2023-04-01T01:34:00.118Z,81.0278
2023-04-01T01:35:02.074Z,81.1817
2023-04-01T01:36:04.000Z,80.7180
2023-04-01T01:37:05.922Z,80.3104
2023-04-01T01:38:07.893Z,80.3312
2023-04-01T01:39:09.838Z,80.1349
2023-04-01T01:40:11.802Z,80.0049
2023-04-01T01:41:13.720Z,80.0608
2023-04-01T01:42:15.658Z,79.9577
2023-04-01T01:43:17.630Z,80.0465
2023-04-01T01:44:19.567Z,80.1753
2023-04-01T01:45:21.502Z,80.2877
2023-04-01T01:46:23.480Z,80.2459
2023-04-01T01:47:25.476Z,80.2026
2023-04-01T01:48:27.400Z,79.8917
2023-04-01T01:49:29.500Z,79.7117
2023-04-01T01:50:31.434Z,79.2086
2023-04-01T01:51:33.398Z,78.5659
2023-04-01T01:52:35.375Z,78.6408
2023-04-01T01:53:37.351Z,78.8061
2023-04-01T01:54:39.295Z,79.1574
2023-04-01T01:55:41.273Z,79.1539
2023-04-01T01:56:43.291Z,78.9392
2023-04-01T01:57:45.258Z,78.8509
2023-04-01T01:58:47.237Z,78.8149
2023-04-01T01:59:49.237Z,78.9607
2023-04-01T02:00:51.200Z,78.8405
2023-04-01T02:01:53.196Z,78.9147
2023-04-01T02:02:55.201Z,79.2612
2023-04-01T02:03:57.158Z,79.0863
2023-04-01T02:04:59.182Z,79.0801
2023-04-01T02:05:59.739Z,79.0654
2023-04-01T02:07:01.674Z,78.5730
2023-04-01T02:08:03.629Z,78.2610
2023-04-01T02:09:05.817Z,78.5117
2023-04-01T02:10:07.811Z,78.5183
2023-04-01T02:11:21.938Z,78.6202
2023-04-01T02:12:23.938Z,78.1699
2023-04-01T02:13:25.904Z,77.7769
2023-04-01T02:14:28.011Z,77.3181
2023-04-01T02:15:30.166Z,77.3543
2023-04-01T02:16:32.281Z,77.2915
2023-04-01T02:17:34.333Z,77.6403
2023-04-01T02:18:36.370Z,77.3688
2023-04-01T02:19:38.399Z,77.0982
2023-04-01T02:20:40.426Z,77.1854
2023-04-01T02:21:42.431Z,77.0215
2023-04-01T02:22:44.447Z,77.1540
2023-04-01T02:23:46.587Z,77.3632
2023-04-01T02:24:48.618Z,77.6883
2023-04-01T02:25:50.821Z,77.4868
2023-04-01T02:26:52.952Z,77.3495
2023-04-01T02:27:55.008Z,77.5860
2023-04-01T02:28:57.054Z,77.1353
2023-04-01T02:29:59.155Z,76.2429
2023-04-01T02:31:01.315Z,76.4397
2023-04-01T02:32:04.022Z,76.8905
2023-04-01T02:33:06.197Z,76.8219
2023-04-01T02:34:08.254Z,76.5555
2023-04-01T02:35:10.283Z,75.8596
2023-04-01T02:36:12.497Z,75.7526
2023-04-01T02:39:37.780Z,75.5131
2023-04-01T02:40:39.762Z,75.8879
2023-04-01T02:41:41.809Z,76.3294
2023-04-01T02:42:43.808Z,76.6661
2023-04-01T02:43:45.781Z,76.9912
2023-04-01T02:44:47.766Z,77.2337
2023-04-01T02:45:49.738Z,77.8169
2023-04-01T02:46:51.906Z,77.8436
2023-04-01T02:47:53.936Z,78.1984
2023-04-01T02:48:55.978Z,78.3914
2023-04-01T02:49:57.947Z,78.9286
2023-04-01T02:51:00.012Z,79.0378
2023-04-01T02:52:02.009Z,79.0958
2023-04-01T02:53:03.988Z,78.7566
2023-04-01T02:54:05.979Z,79.2883
2023-04-01T02:55:07.995Z,79.2413
2023-04-01T02:56:09.943Z,78.8269
2023-04-01T02:57:11.982Z,78.9426
2023-04-01T02:58:13.937Z,78.7472
2023-04-01T02:59:15.929Z,79.2479
2023-04-01T03:00:17.898Z,78.7287
2023-04-01T03:01:19.879Z,78.2600
2023-04-01T03:02:21.888Z,77.9075
2023-04-01T03:03:23.883Z,77.4637
2023-04-01T03:04:25.878Z,77.6838
2023-04-01T03:05:27.827Z,77.7765
2023-04-01T03:06:30.188Z,77.4618
2023-04-01T03:07:32.200Z,77.6556
2023-04-01T03:08:34.122Z,77.2179
2023-04-01T03:09:36.225Z,77.0522
2023-04-01T03:10:38.184Z,76.9025
2023-04-01T03:11:40.127Z,76.7132
2023-04-01T03:12:42.143Z,76.5880
2023-04-01T03:13:42.558Z,76.7152
2023-04-01T03:14:44.508Z,76.5704
2023-04-01T03:15:46.717Z,76.9842
2023-04-01T03:16:48.681Z,77.1236
2023-04-01T03:17:50.667Z,77.3589
2023-04-01T03:18:52.688Z,77.4844
2023-04-01T03:19:54.650Z,77.5544
2023-04-01T03:20:56.607Z,77.5554
2023-04-01T03:21:58.568Z,77.3472
2023-04-01T03:23:00.540Z,77.0647
2023-04-01T03:24:02.731Z,77.3133
2023-04-01T03:25:04.707Z,77.6954
2023-04-01T03:26:06.671Z,77.8610
2023-04-01T03:27:08.620Z,77.5141
2023-04-01T03:28:10.633Z,77.4399
2023-04-01T03:29:12.632Z,77.3144
2023-04-01T03:30:14.636Z,77.1266
2023-04-01T03:31:16.641Z,76.7733
2023-04-01T03:32:18.653Z,77.3297
2023-04-01T03:33:20.734Z,77.6038
2023-04-01T03:34:22.733Z,77.6947
2023-04-01T03:35:24.827Z,77.0876
2023-04-01T03:36:26.876Z,76.9431
2023-04-01T03:37:28.854Z,76.8709
2023-04-01T03:38:30.954Z,76.9610
2023-04-01T03:39:32.969Z,77.3300
2023-04-01T03:40:35.071Z,77.5313
2023-04-01T03:41:37.072Z,77.3826
2023-04-01T03:42:39.080Z,77.1238
2023-04-01T03:43:41.129Z,77.1877
2023-04-01T03:44:43.072Z,77.5389
2023-04-01T03:45:45.133Z,77.4972
2023-04-01T03:46:47.164Z,76.9836
2023-04-01T03:47:49.159Z,77.0383
2023-04-01T03:48:49.243Z,77.2140
2023-04-01T03:49:51.224Z,77.0711
2023-04-01T03:50:53.459Z,76.7703
2023-04-01T03:51:55.410Z,76.8953
2023-04-01T03:52:57.414Z,76.7655
2023-04-01T03:53:59.413Z,76.2347
2023-04-01T03:55:01.498Z,76.0645
2023-04-01T03:56:03.677Z,75.8501
2023-04-01T03:57:05.756Z,76.1263
2023-04-01T03:58:07.760Z,76.2208
2023-04-01T03:59:09.736Z,75.8529
2023-04-01T04:00:11.714Z,75.8837
2023-04-01T04:01:13.691Z,76.0109
2023-04-01T04:02:15.667Z,76.0015
2023-04-01T04:03:17.762Z,76.1367
2023-04-01T04:04:19.923Z,76.5338
2023-04-01T04:05:21.990Z,77.3135
2023-04-01T04:06:23.950Z,77.5962
2023-04-01T04:07:25.895Z,77.7643
2023-04-01T04:08:27.881Z,77.6456
2023-04-01T04:09:29.898Z,76.6980
2023-04-01T04:10:31.901Z,76.0362
2023-04-01T04:11:33.948Z,76.4058
2023-04-01T04:12:35.922Z,75.9949
2023-04-01T04:13:36.951Z,76.1748
2023-04-01T04:14:38.949Z,76.0582
2023-04-01T04:15:41.281Z,75.7722
2023-04-01T04:16:43.207Z,75.8356
2023-04-01T04:17:45.228Z,75.8413
2023-04-01T04:18:47.160Z,76.1171
2023-04-01T04:19:49.162Z,75.9645
2023-04-01T04:20:51.127Z,75.7516
2023-04-01T04:21:53.168Z,75.7836
2023-04-01T04:22:55.091Z,75.8774
2023-04-01T04:23:57.128Z,75.1762
2023-04-01T04:24:59.122Z,75.2441
2023-04-01T04:26:01.068Z,75.4034
2023-04-01T04:27:03.128Z,75.3107
2023-04-01T04:28:05.083Z,74.9077
2023-04-01T04:29:07.055Z,74.6288
2023-04-01T04:30:09.041Z,75.0310
2023-04-01T04:31:10.987Z,74.9828
2023-04-01T04:32:12.921Z,75.0664
2023-04-01T04:33:14.932Z,75.3853
2023-04-01T04:34:16.927Z,75.5909
2023-04-01T04:35:18.936Z,76.5285
2023-04-01T04:36:20.995Z,78.5156
2023-04-01T04:37:22.977Z,79.4580
2023-04-01T04:38:25.050Z,79.3973
2023-04-01T04:39:27.058Z,79.6118
2023-04-01T04:40:29.099Z,79.4107
2023-04-01T04:41:31.145Z,79.2879
2023-04-01T04:42:33.220Z,78.6746
2023-04-01T04:43:35.254Z,79.0766
2023-04-01T04:44:37.232Z,79.6713
2023-04-01T04:45:39.417Z,79.8998
2023-04-01T04:46:41.451Z,79.3637
2023-04-01T04:47:43.398Z,79.6600
2023-04-01T04:48:45.482Z,79.9329
2023-04-01T04:49:47.485Z,79.9767
2023-04-01T04:50:49.545Z,79.6063
2023-04-01T04:51:51.518Z,79.8644
2023-04-01T04:52:53.491Z,79.9796
2023-04-01T04:53:55.520Z,80.1866
2023-04-01T04:54:57.480Z,80.5880
2023-04-01T04:55:59.486Z,80.5378
2023-04-01T04:57:01.468Z,80.3699
2023-04-01T04:58:03.447Z,80.1621
2023-04-01T04:59:05.399Z,80.8024
2023-04-01T05:00:07.359Z,81.0778
2023-04-01T05:01:09.715Z,81.3828
2023-04-01T05:02:11.783Z,81.6320
2023-04-01T05:03:14.004Z,82.0086
2023-04-01T05:04:16.033Z,82.2805
2023-04-01T05:05:18.006Z,82.0762
2023-04-01T05:06:22.208Z,81.0615
2023-04-01T05:07:21.996Z,81.1879
2023-04-01T05:08:24.238Z,81.3479
2023-04-01T05:09:26.205Z,81.4763
2023-04-01T05:10:28.181Z,81.4718
2023-04-01T05:11:30.163Z,81.4133
2023-04-01T05:12:32.089Z,81.2390
2023-04-01T05:13:34.055Z,81.3001
2023-04-01T05:14:36.036Z,81.4483
2023-04-01T05:16:37.332Z,81.8061
2023-04-01T05:17:39.358Z,82.3852
2023-04-01T05:18:41.291Z,82.6939
2023-04-01T05:19:43.251Z,82.6363
2023-04-01T05:20:45.442Z,82.8199
2023-04-01T05:21:47.416Z,83.1022
2023-04-01T05:22:49.356Z,82.9552
2023-04-01T05:23:51.484Z,83.1852
2023-04-01T05:24:53.434Z,82.6684
2023-04-01T05:25:55.402Z,82.5398
2023-04-01T05:26:57.497Z,82.7005
2023-04-01T05:27:59.447Z,82.8326
2023-04-01T05:29:01.416Z,82.8098
2023-04-01T05:32:16.875Z,82.7114
2023-04-01T05:33:19.079Z,83.3233
2023-04-01T05:34:21.109Z,83.8220
2023-04-01T05:35:23.103Z,83.4126
2023-04-01T05:36:25.092Z,83.7364
2023-04-01T05:37:27.866Z,84.3048
2023-04-01T05:38:29.827Z,84.3880
2023-04-01T05:39:31.783Z,84.4022
2023-04-01T05:40:33.765Z,84.5110
2023-04-01T05:41:35.722Z,84.6289
2023-04-01T05:42:38.478Z,84.5847
2023-04-01T05:43:40.502Z,84.8135
2023-04-01T05:44:42.466Z,84.9682
2023-04-01T05:45:44.437Z,84.8595
2023-04-01T05:46:46.484Z,84.3885
2023-04-01T05:47:48.511Z,84.4401
2023-04-01T05:48:50.528Z,84.2957
2023-04-01T05:49:52.497Z,84.3126
2023-04-01T05:50:54.550Z,83.7758
2023-04-01T05:51:56.537Z,83.2309
2023-04-01T05:52:58.555Z,82.7357
2023-04-01T05:54:00.536Z,83.0577
2023-04-01T05:55:02.522Z,83.0796
2023-04-01T05:56:04.562Z,82.9603
2023-04-01T05:57:06.578Z,83.3263
2023-04-01T05:58:08.604Z,83.7157
2023-04-01T05:59:10.684Z,83.8126
2023-04-01T06:00:12.667Z,83.7237
2023-04-01T06:01:16.450Z,83.6554
2023-04-01T06:02:15.244Z,83.7833
2023-04-01T06:03:17.505Z,83.6049
2023-04-01T06:04:19.623Z,83.8200
2023-04-01T06:05:21.671Z,84.0987
2023-04-01T06:06:23.686Z,84.4506
2023-04-01T06:19:20.136Z,84.4598
2023-04-01T06:20:09.034Z,81.6409
2023-04-01T06:21:11.104Z,82.3272
2023-04-01T06:22:13.102Z,82.7690
2023-04-01T06:23:15.172Z,82.6658
2023-04-01T06:24:17.492Z,82.7363
2023-04-01T06:25:19.880Z,82.5540
2023-04-01T06:26:21.861Z,82.5512
2023-04-01T06:27:24.045Z,82.0324
2023-04-01T06:28:26.158Z,82.3211
2023-04-01T06:29:28.197Z,82.3690
2023-04-01T06:30:30.223Z,82.7181
2023-04-01T06:31:32.308Z,82.6348
2023-04-01T06:32:34.430Z,82.5425
2023-04-01T06:33:36.449Z,82.6086
2023-04-01T06:34:38.604Z,82.3161
2023-04-01T06:35:40.722Z,81.9396
2023-04-01T06:36:42.799Z,80.8883
2023-04-01T06:37:44.828Z,80.0227
2023-04-01T06:38:46.830Z,79.8814
2023-04-01T06:39:48.857Z,78.8955
2023-04-01T06:40:51.158Z,78.5495
2023-04-01T06:41:53.101Z,78.8949
2023-04-01T06:42:55.113Z,79.1315
2023-04-01T06:43:57.319Z,79.3762
2023-04-01T06:44:59.264Z,79.7348
2023-04-01T06:46:01.404Z,80.0316
2023-04-01T06:47:03.347Z,80.2588
2023-04-01T06:48:03.623Z,80.0005
2023-04-01T06:49:05.596Z,79.9892
2023-04-01T06:50:07.793Z,79.8925
2023-04-01T06:51:09.814Z,80.0414
2023-04-01T06:52:37.520Z,79.4233
2023-04-01T06:53:13.660Z,78.6526
2023-04-01T06:54:15.657Z,78.3151
2023-04-01T06:55:17.860Z,78.5825
2023-04-01T06:56:19.914Z,78.4863
2023-04-01T06:57:48.968Z,78.2556
2023-04-01T06:58:23.713Z,78.1144
2023-04-01T06:59:26.019Z,77.8497
2023-04-01T07:00:27.921Z,77.5356
2023-04-01T07:01:30.088Z,77.2831
2023-04-01T07:02:32.109Z,77.2495
2023-04-01T07:03:34.178Z,77.3535
2023-04-01T07:04:36.282Z,77.3888
2023-04-01T07:05:38.404Z,77.5870
2023-04-01T07:06:40.450Z,77.9746
2023-04-01T07:08:37.927Z,78.0026
2023-04-01T07:09:06.232Z,77.9625
2023-04-01T07:10:08.218Z,78.3142
2023-04-01T07:11:10.224Z,78.3189
2023-04-01T07:14:52.196Z,78.1306
2023-04-01T07:15:22.056Z,77.7600
2023-04-01T07:16:24.682Z,77.9176
2023-04-01T07:17:26.791Z,78.4852
2023-04-01T07:22:03.021Z,78.8154
2023-04-01T07:22:38.113Z,80.5663
2023-04-01T07:37:00.228Z,81.0282
2023-04-01T07:38:02.257Z,83.7218
2023-04-01T07:39:04.305Z,83.4427
2023-04-01T12:20:12.469Z,75.0500
2023-04-01T12:20:57.462Z,75.6829
2023-04-01T12:21:59.551Z,76.1190
2023-04-01T12:23:04.048Z,76.4093
2023-04-01T12:31:47.561Z,76.4389
2023-04-01T12:32:15.733Z,79.5001
2023-04-01T12:34:27.725Z,80.3997
2023-04-01T12:35:19.786Z,79.2328
2023-04-01T12:36:23.070Z,78.5935
2023-04-01T12:37:25.085Z,78.7836
2023-04-01T12:48:43.791Z,78.3677
2023-04-01T12:49:45.811Z,72.4035
2023-04-01T12:50:48.234Z,72.6245
2023-04-01T12:51:50.229Z,72.0918
2023-04-01T12:52:52.368Z,71.2519
2023-04-01T12:53:54.404Z,71.5183
2023-04-01T12:54:57.507Z,71.8805
2023-04-01T12:55:57.967Z,71.3188
2023-04-01T12:57:00.007Z,70.7927
2023-04-01T12:58:02.048Z,70.5021
2023-04-01T12:59:02.126Z,71.4864
2023-04-01T13:01:22.260Z,70.7355
2023-04-01T13:02:24.503Z,70.4016
2023-04-01T13:04:08.722Z,69.8876
2023-04-01T13:04:53.747Z,69.7801
2023-04-01T13:05:55.753Z,69.8842
2023-04-01T13:06:57.851Z,69.7688
2023-04-01T13:07:59.980Z,69.5125
2023-04-01T13:09:02.074Z,69.3092
2023-04-01T13:10:04.091Z,68.5734
2023-04-01T13:11:06.177Z,68.7527
2023-04-01T13:12:06.341Z,68.8416
2023-04-01T13:13:08.379Z,69.8082
2023-04-01T13:15:26.196Z,69.2134
2023-04-01T13:16:28.290Z,69.6717
2023-04-01T13:17:30.636Z,69.9037
2023-04-01T13:18:32.758Z,69.7947
2023-04-01T13:19:34.800Z,69.7338
2023-04-01T13:20:36.965Z,69.4694
2023-04-01T13:21:38.971Z,68.7792
2023-04-01T13:22:41.029Z,69.0064
2023-04-01T13:23:43.032Z,69.0981
2023-04-01T13:24:45.091Z,69.4549
2023-04-01T13:25:47.266Z,69.3136
2023-04-01T13:26:49.336Z,68.9282
2023-04-01T13:27:51.424Z,69.4220
2023-04-01T13:28:53.659Z,68.5997
2023-04-01T13:29:55.636Z,68.5574
2023-04-01T13:30:58.455Z,68.6337
2023-04-01T13:32:00.479Z,68.5165
2023-04-01T13:33:02.727Z,68.2740
2023-04-01T13:34:04.791Z,68.0855
2023-04-01T13:35:06.273Z,68.2474
2023-04-01T13:36:08.505Z,68.5902
2023-04-01T13:37:10.580Z,68.9613
2023-04-01T13:38:13.393Z,68.7479
2023-04-01T13:39:15.403Z,68.5136
2023-04-01T13:40:18.290Z,68.4481
2023-04-01T13:41:20.346Z,68.7007
2023-04-01T13:42:22.369Z,68.9876
2023-04-01T13:43:24.391Z,68.9447
2023-04-01T13:44:26.457Z,68.8332
2023-04-01T13:45:28.817Z,68.9414
2023-04-01T13:46:30.811Z,68.5051
2023-04-01T13:47:32.918Z,67.8719
2023-04-01T13:48:34.921Z,67.9043
2023-04-01T13:49:36.907Z,67.9054
2023-04-01T13:50:38.971Z,68.3441
2023-04-01T13:51:41.018Z,68.4739
2023-04-01T13:52:43.031Z,68.6790
2023-04-01T13:53:45.050Z,69.3821
2023-04-01T13:54:47.041Z,69.7995
2023-04-01T13:55:47.557Z,69.1931
2023-04-01T13:56:49.652Z,69.8489
2023-04-01T13:57:51.660Z,69.9680
2023-04-01T13:58:53.675Z,70.0572
2023-04-01T13:59:55.708Z,70.1354
2023-04-01T14:00:57.803Z,69.2602
2023-04-01T14:01:59.841Z,69.1135
2023-04-01T14:03:01.968Z,69.0534
2023-04-01T14:04:04.148Z,68.9193
2023-04-01T14:05:06.182Z,68.9714
2023-04-01T14:06:08.217Z,69.6351
2023-04-01T14:07:10.304Z,69.5493
2023-04-01T14:08:12.285Z,69.6920
2023-04-01T14:09:14.423Z,70.2342
2023-04-01T14:10:16.448Z,70.4968
2023-04-01T14:11:18.439Z,70.5064
2023-04-01T14:12:20.477Z,70.5648
2023-04-01T14:13:22.673Z,70.5586
2023-04-01T14:14:24.688Z,70.4445
2023-04-01T14:15:26.669Z,70.3852
2023-04-01T14:16:28.781Z,70.0296
2023-04-01T14:17:31.073Z,70.5637
2023-04-01T14:18:33.150Z,70.7990
2023-04-01T14:19:37.016Z,70.8945
2023-04-01T14:20:35.670Z,71.2325
2023-04-01T14:25:23.730Z,71.1604
2023-04-01T14:26:25.785Z,76.2690
2023-04-01T14:36:10.614Z,76.4342
2023-04-01T14:37:12.608Z,94.5763
2023-04-01T14:38:14.697Z,95.7086
2023-04-01T14:39:15.261Z,96.1371
2023-04-01T14:40:17.355Z,96.4144
2023-04-01T16:26:17.112Z,96.4860
2023-04-01T16:26:58.645Z,77.5188
2023-04-01T16:28:00.669Z,78.4449
2023-04-01T16:29:02.662Z,77.1054
2023-04-01T16:30:04.738Z,78.5276
2023-04-01T16:31:06.711Z,78.9597
2023-04-01T16:32:08.870Z,77.4553
2023-04-01T16:33:10.915Z,77.3195
2023-04-01T16:34:12.949Z,78.4395
2023-04-01T17:57:50.377Z,78.8792
2023-04-01T17:58:35.675Z,84.4385
2023-04-01T17:59:38.349Z,84.6265
2023-04-01T18:00:53.017Z,85.0172
2023-04-01T18:01:41.375Z,85.1827
2023-04-01T18:02:43.413Z,85.3881
2023-04-01T18:03:45.855Z,85.0406
2023-04-01T18:04:48.200Z,84.7906
2023-04-01T18:05:50.225Z,84.6964
2023-04-01T18:06:52.222Z,84.8673
2023-04-01T18:07:54.347Z,85.0538
2023-04-01T18:08:56.335Z,85.2139
2023-04-01T18:27:58.756Z,85.2018
2023-04-01T18:28:47.293Z,85.6606
2023-04-01T18:29:50.576Z,85.4764
2023-04-01T18:30:52.615Z,85.0500
2023-04-01T18:31:54.902Z,84.9788
2023-04-01T18:32:55.290Z,84.7486
2023-04-01T18:33:57.295Z,84.3141
2023-04-01T18:34:59.547Z,84.7278
2023-04-01T18:36:01.619Z,84.5850
2023-04-01T18:37:03.870Z,84.5994
2023-04-01T18:38:05.844Z,84.5183
2023-04-01T18:39:07.895Z,84.6399
2023-04-01T18:40:10.036Z,84.7042
2023-04-01T18:41:12.128Z,84.5763
2023-04-01T18:42:14.120Z,84.0966
2023-04-01T18:43:16.235Z,84.2708
2023-04-01T18:44:18.327Z,84.2304
2023-04-01T18:45:20.328Z,84.1102
2023-04-01T18:46:22.460Z,84.0452
2023-04-01T18:47:24.800Z,84.0917
2023-04-01T18:48:26.905Z,84.3339
2023-04-01T18:49:29.154Z,83.8063
2023-04-01T18:50:31.166Z,83.2482
2023-04-01T18:51:33.177Z,83.5233
2023-04-01T18:52:35.155Z,83.7741
2023-04-01T18:53:37.272Z,83.8874
2023-04-01T18:54:39.259Z,83.5688
2023-04-01T18:55:41.251Z,83.9408
2023-04-01T18:56:43.253Z,83.9207
2023-04-01T18:57:45.235Z,83.7018
2023-04-01T18:58:47.221Z,83.6855
2023-04-01T18:59:49.508Z,83.5889
2023-04-01T19:00:51.511Z,83.9128
2023-04-01T19:06:27.371Z,83.8912
2023-04-01T19:07:19.315Z,83.6892
2023-04-01T19:08:21.398Z,83.8388
2023-04-01T19:09:23.529Z,84.0589
2023-04-01T19:10:25.521Z,83.8468
2023-04-01T19:11:27.604Z,84.0163
2023-04-01T19:12:29.654Z,83.8284
2023-04-01T19:13:31.633Z,83.9751
2023-04-01T19:14:33.714Z,83.5489
2023-04-01T19:15:35.826Z,83.5904
2023-04-01T19:16:37.893Z,83.7962
2023-04-01T19:17:39.894Z,83.9076
2023-04-01T19:18:41.891Z,83.9573
2023-04-01T19:19:43.901Z,83.9056
2023-04-01T19:20:45.910Z,83.6279
2023-04-01T19:21:48.052Z,83.4349
2023-04-01T19:22:50.025Z,83.6026
2023-04-01T19:23:52.042Z,83.9138
2023-04-01T19:24:54.087Z,84.1911
2023-04-01T19:25:56.059Z,84.2243
2023-04-01T19:26:58.066Z,84.4596
2023-04-01T19:28:04.088Z,84.3453
2023-04-01T19:29:06.353Z,84.4939
2023-04-01T19:30:08.371Z,84.5842
2023-04-01T19:31:10.498Z,84.3165
2023-04-01T19:32:12.788Z,84.0878
2023-04-01T19:33:14.804Z,84.1683
2023-04-01T19:34:16.825Z,84.1193
2023-04-01T19:35:18.880Z,83.9185
2023-04-01T19:36:20.912Z,83.9779
2023-04-01T19:37:23.201Z,83.9127
2023-04-01T19:38:25.197Z,83.9701
2023-04-01T19:39:27.208Z,83.7704
2023-04-01T19:40:29.217Z,84.0051
2023-04-01T19:41:32.421Z,84.0934
2023-04-01T19:42:34.447Z,83.9448
2023-04-01T19:43:36.533Z,83.9451
2023-04-01T19:44:38.525Z,84.0461
2023-04-01T19:45:40.532Z,83.8739
2023-04-01T19:46:42.791Z,83.9931
2023-04-01T19:47:44.948Z,83.8179
2023-04-01T19:48:46.976Z,84.1920
2023-04-01T19:49:47.240Z,84.3205
2023-04-01T19:50:49.246Z,84.1548
2023-04-01T19:51:51.349Z,84.2702
2023-04-01T19:52:53.368Z,84.4753
2023-04-01T19:53:55.374Z,84.5881
2023-04-01T19:54:57.384Z,84.8531
2023-04-01T19:55:59.394Z,85.0106
2023-04-01T19:57:01.436Z,84.9443
2023-04-01T19:58:05.375Z,84.6891
2023-04-01T19:59:05.055Z,84.7755
2023-04-01T20:00:07.086Z,84.8881
2023-04-01T20:01:09.061Z,84.9761
2023-04-01T20:02:11.080Z,84.8531
2023-04-01T20:03:13.161Z,84.8382
2023-04-01T20:04:15.192Z,84.8035
2023-04-01T20:05:17.275Z,85.1029
2023-04-01T20:06:19.229Z,84.8046
2023-04-01T20:07:21.248Z,84.8076
2023-04-01T20:08:23.235Z,84.9753
2023-04-01T20:09:25.230Z,84.9389
2023-04-01T20:10:47.290Z,85.1854
2023-04-01T20:11:38.992Z,85.2584
2023-04-01T20:12:41.098Z,85.2693
2023-04-01T20:13:43.195Z,85.4703
2023-04-01T20:14:45.719Z,85.5567
2023-04-01T20:15:47.699Z,85.6347
2023-04-01T20:16:49.702Z,85.6095
2023-04-01T20:17:51.835Z,85.3160
2023-04-01T20:18:53.941Z,85.2062
2023-04-01T20:19:55.929Z,85.0971
2023-04-01T20:20:57.924Z,84.8260
2023-04-01T20:22:00.034Z,84.7474
2023-04-01T20:23:18.415Z,84.8068
2023-04-01T20:24:12.440Z,85.3033
2023-04-01T20:25:07.256Z,85.3959
2023-04-01T20:26:05.856Z,85.5395
2023-04-01T20:27:08.441Z,85.6019
2023-04-01T20:28:10.422Z,85.3095
2023-04-01T20:29:12.452Z,85.5045
2023-04-01T20:32:22.263Z,85.5779
2023-04-01T20:33:07.449Z,85.5593
2023-04-01T20:34:09.432Z,85.5733
2023-04-01T20:35:11.443Z,85.7042
2023-04-01T20:36:13.723Z,85.5839
2023-04-01T20:37:15.710Z,85.3268
2023-04-01T20:38:17.671Z,85.4076
2023-04-01T20:39:19.797Z,85.5088
2023-04-01T20:40:21.997Z,85.2775
2023-04-01T20:41:24.008Z,85.3084
2023-04-01T20:42:25.987Z,85.3663
2023-04-01T20:43:28.003Z,85.4869
2023-04-01T20:44:29.965Z,85.1279
2023-04-01T20:45:32.342Z,85.2372
2023-04-01T20:46:34.482Z,85.4150
2023-04-01T20:47:36.948Z,85.5148
2023-04-01T20:48:38.911Z,85.6164
2023-04-01T20:49:40.914Z,85.3526
2023-04-01T20:50:43.085Z,85.3930
2023-04-01T20:51:45.074Z,85.3456
2023-04-01T20:53:50.370Z,85.2123
2023-04-01T20:55:06.051Z,85.0510
2023-04-01T20:56:08.172Z,84.8190
2023-04-01T20:57:10.396Z,84.3551
2023-04-01T20:58:12.494Z,84.5512
2023-04-01T20:59:14.475Z,84.7950
2023-04-01T21:00:16.481Z,84.8314
2023-04-01T21:01:18.529Z,84.7677
2023-04-01T21:02:20.546Z,84.1887
2023-04-01T21:03:22.536Z,83.7185
2023-04-01T21:04:24.570Z,83.7733
2023-04-01T21:05:26.736Z,83.9076
2023-04-01T21:06:28.745Z,83.9974
2023-04-01T21:07:30.749Z,83.6900
2023-04-01T21:12:23.600Z,83.4288
2023-04-01T21:13:12.045Z,83.8456
2023-04-01T21:14:14.008Z,83.6964
2023-04-01T21:15:16.229Z,83.6177
2023-04-01T21:16:18.442Z,84.0457
2023-04-01T21:17:20.415Z,84.0798
2023-04-01T21:18:22.519Z,83.8077
2023-04-01T21:19:24.713Z,83.5963
2023-04-01T21:20:26.715Z,83.4073
2023-04-01T21:21:28.931Z,83.2107
2023-04-01T21:22:30.899Z,82.5955
2023-04-01T21:23:32.930Z,82.8613
2023-04-01T21:24:34.901Z,82.6031
2023-04-01T21:25:37.082Z,82.1436
2023-04-01T21:26:39.312Z,82.0110
2023-04-01T21:27:41.254Z,82.2146
2023-04-01T21:28:43.260Z,81.5713
2023-04-01T21:29:45.244Z,81.4833
2023-04-01T21:30:47.225Z,81.2974
2023-04-01T21:31:49.228Z,81.5266
2023-04-01T21:32:51.396Z,81.3887
2023-04-01T21:33:53.378Z,81.8528
2023-04-01T21:34:55.386Z,81.8038
2023-04-01T21:35:57.416Z,81.1505
2023-04-01T21:36:59.391Z,81.7082
2023-04-01T21:38:22.533Z,81.8895
2023-04-01T21:39:04.026Z,81.7861
2023-04-01T21:40:06.123Z,81.7546
2023-04-01T21:41:08.108Z,81.3172
2023-04-01T21:42:08.289Z,81.3468
2023-04-01T21:43:42.803Z,81.8067
2023-04-01T21:44:10.763Z,81.7847
2023-04-01T21:45:12.983Z,81.9715
2023-04-01T21:46:15.151Z,81.9699
2023-04-01T21:47:17.170Z,81.9971
2023-04-01T21:48:19.446Z,81.8450
2023-04-01T21:49:21.467Z,82.0135
2023-04-01T21:50:23.504Z,82.2634
2023-04-01T21:51:25.542Z,82.3998
2023-04-01T21:52:27.807Z,82.2844
2023-04-01T21:53:29.948Z,82.1781
2023-04-01T21:54:31.986Z,82.0275
2023-04-01T21:55:34.238Z,82.2446
2023-04-01T21:56:36.348Z,82.2174